Eureka, Utah
Current Conditions -  °F | °C
As of 9:15 PM on Wednesday 17 Dec 2014 (Local Time) from KPVU Reporting Station
Few Clouds Few Clouds  
Wind Chill: 30°   Ceiling: Unl
Heat Index: 34°   Visibility: 9mi
Dew Point: 30°   Wind: 5mph
Humidity: 87%   Direction: 110°ESE
Pressure: 30.06"   Gusts: NA
Location:  39.95°N, 112.12°W
Report Text: KPVU 180415Z AUTO 11004KT 9SM FEW065 01/M01 A3006 RMK AO1
Loading
Personal Weather Stations






























Interactive Weather Map New forecast layout! Learn more

10-Day Weather Forecast

Advertisements
Track Severe Weather on mobile